createdAt,value
2023-05-10T00:02:15.660Z,22.41
2023-05-10T00:07:20.776Z,22.39
2023-05-10T00:12:23.768Z,22.37
2023-05-10T00:17:28.060Z,22.38
2023-05-10T00:22:32.299Z,22.36
2023-05-10T00:27:35.212Z,22.35
2023-05-10T00:32:38.405Z,22.35
2023-05-10T00:37:42.685Z,22.35
2023-05-10T00:42:45.741Z,22.34
2023-05-10T00:47:48.691Z,22.34
2023-05-10T00:52:54.983Z,22.33
2023-05-10T00:57:57.869Z,22.32
2023-05-10T01:03:00.939Z,22.33
2023-05-10T01:08:05.662Z,22.32
2023-05-10T01:13:08.603Z,22.31
2023-05-10T01:18:11.610Z,22.31
2023-05-10T01:23:47.358Z,22.29
2023-05-10T01:29:14.604Z,22.27
2023-05-10T01:34:21.458Z,22.29
2023-05-10T01:39:28.075Z,22.28
2023-05-10T01:44:36.028Z,22.26
2023-05-10T01:49:44.494Z,22.26
2023-05-10T01:54:52.437Z,22.26
2023-05-10T01:59:57.697Z,22.26
2023-05-10T02:05:01.940Z,22.28
2023-05-10T02:10:06.955Z,22.29
2023-05-10T02:15:11.571Z,22.32
2023-05-10T02:20:16.784Z,22.31
2023-05-10T02:25:21.158Z,22.32
2023-05-10T02:30:25.070Z,22.30
2023-05-10T02:35:29.556Z,22.31
2023-05-10T02:40:32.615Z,22.30
2023-05-10T02:45:36.841Z,22.26
2023-05-10T02:50:43.984Z,22.29
2023-05-10T02:55:48.639Z,22.29
2023-05-10T03:00:51.595Z,22.29
2023-05-10T03:05:56.874Z,22.31
2023-05-10T03:11:11.497Z,22.29
2023-05-10T03:16:18.073Z,22.37
2023-05-10T03:21:27.114Z,22.33
2023-05-10T03:26:31.765Z,22.33
2023-05-10T03:31:35.073Z,22.34
2023-05-10T03:36:39.833Z,22.29
2023-05-10T03:41:46.144Z,22.33
2023-05-10T03:46:49.079Z,22.36
2023-05-10T03:51:53.654Z,22.33
2023-05-10T03:56:56.451Z,22.37
2023-05-10T04:01:59.665Z,22.37
2023-05-10T04:07:03.853Z,22.35
2023-05-10T04:12:09.453Z,22.37
2023-05-10T04:17:13.738Z,22.31
2023-05-10T04:22:18.615Z,22.27
2023-05-10T04:27:21.918Z,22.25
2023-05-10T04:32:24.923Z,22.21
2023-05-10T04:37:29.112Z,22.18
2023-05-10T04:42:31.977Z,22.18
2023-05-10T04:47:35.724Z,22.13
2023-05-10T04:52:39.883Z,22.17
2023-05-10T04:57:42.719Z,22.10
2023-05-10T05:02:46.552Z,22.10
2023-05-10T05:07:52.702Z,22.14
2023-05-10T05:12:55.778Z,22.12
2023-05-10T05:17:58.713Z,22.08
2023-05-10T05:23:03.501Z,22.11
2023-05-10T05:28:07.563Z,22.09
2023-05-10T05:33:11.916Z,22.08
2023-05-10T05:38:16.788Z,22.08
2023-05-10T05:43:19.695Z,22.11
2023-05-10T05:48:22.569Z,22.11
2023-05-10T05:53:26.748Z,22.11
2023-05-10T05:58:29.641Z,22.11
2023-05-10T06:03:32.539Z,22.12
2023-05-10T06:08:36.804Z,22.13
2023-05-10T06:13:40.530Z,22.13
2023-05-10T06:18:43.469Z,22.15
2023-05-10T06:23:47.667Z,22.15
2023-05-10T06:28:50.617Z,22.18
2023-05-10T06:33:55.338Z,22.22
2023-05-10T06:39:00.858Z,22.21
2023-05-10T06:44:04.614Z,22.20
2023-05-10T06:49:07.616Z,22.22
2023-05-10T06:54:11.751Z,22.17
2023-05-10T06:59:16.929Z,22.20
2023-05-10T07:04:20.285Z,22.22
2023-05-10T07:09:25.393Z,22.22
2023-05-10T07:14:28.238Z,22.23
2023-05-10T07:19:33.478Z,22.25
2023-05-10T07:24:37.975Z,22.27
2023-05-10T07:29:41.038Z,22.31
2023-05-10T07:34:43.950Z,22.32
2023-05-10T07:39:48.239Z,22.32
2023-05-10T07:44:51.126Z,22.37
2023-05-10T07:49:53.934Z,22.36
2023-05-10T07:54:58.274Z,22.35
2023-05-10T08:00:01.345Z,22.34
2023-05-10T08:05:05.214Z,22.33
2023-05-10T08:10:11.998Z,22.33
2023-05-10T08:15:14.961Z,22.34
2023-05-10T08:20:19.982Z,22.34
2023-05-10T08:25:24.262Z,22.35
2023-05-10T08:30:27.216Z,22.35
2023-05-10T08:35:30.993Z,22.37
2023-05-10T08:40:36.942Z,22.40
2023-05-10T08:45:41.775Z,22.45
2023-05-10T08:50:44.930Z,22.46
2023-05-10T08:55:49.623Z,22.42
2023-05-10T09:00:53.439Z,22.41
2023-05-10T09:05:57.072Z,22.44
2023-05-10T09:11:02.436Z,22.45
2023-05-10T09:16:13.937Z,22.46
2023-05-10T09:21:24.510Z,22.45
2023-05-10T09:26:29.226Z,22.41
2023-05-10T09:31:48.989Z,22.40
2023-05-10T09:36:57.342Z,22.39
2023-05-10T09:42:04.765Z,22.42
2023-05-10T09:47:07.707Z,22.45
2023-05-10T09:52:10.810Z,22.48
2023-05-10T09:57:21.971Z,22.49
2023-05-10T10:02:31.063Z,22.48
2023-05-10T10:07:34.495Z,22.48
2023-05-10T10:12:39.168Z,22.49
2023-05-10T10:17:43.199Z,22.51
2023-05-10T10:22:46.762Z,22.52
2023-05-10T10:28:00.436Z,22.54
2023-05-10T10:33:28.506Z,22.57
2023-05-10T10:38:40.776Z,22.59
2023-05-10T10:43:46.441Z,22.62
2023-05-10T10:48:52.405Z,22.69
2023-05-10T10:53:56.081Z,22.68
2023-05-10T10:59:02.644Z,22.70
2023-05-10T11:04:21.788Z,22.70
2023-05-10T11:09:26.729Z,22.71
2023-05-10T11:14:34.041Z,22.68
2023-05-10T11:19:39.952Z,22.70
2023-05-10T11:24:59.103Z,22.72
2023-05-10T11:30:04.999Z,22.72
2023-05-10T11:35:09.563Z,22.71
2023-05-10T11:40:13.721Z,22.72
2023-05-10T11:45:18.120Z,22.75
2023-05-10T11:50:20.995Z,22.76
2023-05-10T11:55:25.136Z,22.80
2023-05-10T12:00:29.754Z,22.81
2023-05-10T12:05:34.391Z,22.83
2023-05-10T12:10:37.470Z,22.85
2023-05-10T12:15:41.995Z,22.85
2023-05-10T12:20:44.823Z,22.87
2023-05-10T12:25:47.781Z,22.87
2023-05-10T12:30:55.315Z,22.90
2023-05-10T12:36:01.416Z,22.93
2023-05-10T12:41:06.071Z,22.93
2023-05-10T12:46:11.372Z,22.94
2023-05-10T12:51:16.700Z,22.98
2023-05-10T12:56:19.842Z,23.06
2023-05-10T13:01:24.858Z,23.10
2023-05-10T13:06:27.817Z,23.09
2023-05-10T13:11:30.790Z,23.09
2023-05-10T13:16:36.207Z,23.10
2023-05-10T13:21:39.277Z,23.09
2023-05-10T13:26:42.380Z,23.04
2023-05-10T13:31:46.758Z,23.01
2023-05-10T13:36:50.168Z,23.03
2023-05-10T13:41:53.890Z,23.02
2023-05-10T13:46:58.944Z,23.03
2023-05-10T13:52:06.853Z,23.06
2023-05-10T13:57:09.888Z,23.10
2023-05-10T14:02:14.255Z,23.17
2023-05-10T14:07:17.142Z,23.22
2023-05-10T14:12:20.851Z,23.36
2023-05-10T14:17:25.385Z,23.54
2023-05-10T14:22:28.303Z,23.71
2023-05-10T14:27:31.343Z,23.86
2023-05-10T14:32:37.575Z,23.90
2023-05-10T14:37:40.736Z,24.13
2023-05-10T14:42:44.190Z,24.16
2023-05-10T14:47:49.137Z,24.14
2023-05-10T14:52:52.565Z,24.24
2023-05-10T14:57:55.451Z,24.27
2023-05-10T15:02:59.657Z,24.20
2023-05-10T15:08:03.055Z,24.13
2023-05-10T15:13:06.139Z,24.07
2023-05-10T15:18:10.565Z,23.98
2023-05-10T15:23:13.477Z,23.92
2023-05-10T15:28:16.281Z,23.95
2023-05-10T15:38:23.507Z,24.95
2023-05-10T15:43:26.455Z,25.09
2023-05-10T15:48:32.241Z,24.63
2023-05-10T15:53:36.034Z,24.48
2023-05-10T15:58:39.491Z,24.39
2023-05-10T16:03:44.843Z,24.80
2023-05-10T16:08:47.673Z,24.62
2023-05-10T16:13:50.511Z,24.34
2023-05-10T16:18:54.775Z,24.24
2023-05-10T16:23:57.745Z,24.17
2023-05-10T16:29:00.673Z,24.04
2023-05-10T16:34:04.845Z,24.01
2023-05-10T16:39:09.282Z,23.89
2023-05-10T16:44:12.123Z,23.81
2023-05-10T16:49:16.537Z,23.76
2023-05-10T16:54:20.239Z,23.76
2023-05-10T16:59:23.072Z,23.82
2023-05-10T17:04:27.328Z,25.57
2023-05-10T17:09:30.127Z,26.74
2023-05-10T17:14:32.915Z,26.85
2023-05-10T17:19:37.132Z,26.76
2023-05-10T17:24:39.983Z,26.52
2023-05-10T17:29:42.967Z,25.22
2023-05-10T17:34:47.396Z,24.77
2023-05-10T17:39:50.804Z,24.50
2023-05-10T17:44:53.651Z,24.35
2023-05-10T17:49:57.790Z,24.22
2023-05-10T17:55:01.166Z,24.06
2023-05-10T18:00:06.272Z,23.97
2023-05-10T18:05:12.074Z,23.85
2023-05-10T18:10:16.128Z,23.76
2023-05-10T18:15:19.239Z,23.68
2023-05-10T18:20:23.659Z,23.63
2023-05-10T18:25:26.600Z,23.55
2023-05-10T18:30:29.410Z,23.50
2023-05-10T18:35:35.280Z,23.45
2023-05-10T18:40:38.119Z,23.38
2023-05-10T18:45:41.649Z,23.36
2023-05-10T18:50:45.855Z,23.32
2023-05-10T18:55:56.911Z,23.24
2023-05-10T19:00:59.708Z,23.22
2023-05-10T19:06:03.937Z,23.18
2023-05-10T19:11:06.810Z,23.15
2023-05-10T19:16:14.287Z,23.09
2023-05-10T19:21:18.801Z,23.06
2023-05-10T19:26:23.292Z,23.04
2023-05-10T19:31:26.180Z,23.02
2023-05-10T19:36:31.135Z,22.99
2023-05-10T19:41:34.001Z,22.95
2023-05-10T19:46:36.897Z,22.92
2023-05-10T19:51:41.326Z,22.88
2023-05-10T19:56:44.481Z,22.88
2023-05-10T20:01:47.319Z,22.85
2023-05-10T20:06:51.529Z,22.80
2023-05-10T20:11:54.339Z,22.80
2023-05-10T20:16:57.211Z,22.78
2023-05-10T20:22:01.424Z,22.75
2023-05-10T20:27:05.206Z,22.72
2023-05-10T20:32:08.118Z,22.73
2023-05-10T20:37:13.286Z,22.69
2023-05-10T20:42:16.607Z,22.68
2023-05-10T20:47:19.549Z,22.66
2023-05-10T20:52:25.167Z,22.65
2023-05-10T20:57:27.943Z,22.62
2023-05-10T21:02:30.764Z,22.60
2023-05-10T21:07:35.025Z,22.57
2023-05-10T21:12:38.103Z,22.57
2023-05-10T21:17:40.912Z,22.54
2023-05-10T21:22:45.137Z,22.53
2023-05-10T21:27:48.279Z,22.53
2023-05-10T21:32:51.147Z,22.50
2023-05-10T21:37:55.806Z,22.49
2023-05-10T21:42:58.576Z,22.49
2023-05-10T21:48:01.711Z,22.47
2023-05-10T21:53:05.928Z,22.46
2023-05-10T21:58:08.760Z,22.45
2023-05-10T22:03:13.188Z,22.44
2023-05-10T22:08:17.460Z,22.43
2023-05-10T22:13:20.340Z,22.42
2023-05-10T22:18:23.237Z,22.40
2023-05-10T22:23:27.532Z,22.39
2023-05-10T22:28:30.687Z,22.38
2023-05-10T22:33:33.483Z,22.37
2023-05-10T22:38:37.718Z,22.34
2023-05-10T22:43:40.510Z,22.34
2023-05-10T22:48:44.132Z,22.33
2023-05-10T22:53:48.361Z,22.31
2023-05-10T22:58:52.109Z,22.29
2023-05-10T23:03:54.915Z,22.30
2023-05-10T23:08:59.071Z,22.30
2023-05-10T23:14:01.898Z,22.29
2023-05-10T23:19:04.756Z,22.26
2023-05-10T23:24:09.153Z,22.25
2023-05-10T23:29:12.257Z,22.26
2023-05-10T23:34:15.731Z,22.23
2023-05-10T23:39:19.914Z,22.22
2023-05-10T23:44:22.760Z,22.21
2023-05-10T23:49:25.559Z,22.20
2023-05-10T23:54:29.788Z,22.20
2023-05-10T23:59:32.902Z,22.17
